createdAt,value
2023-01-28T00:00:23.872Z,0
2023-01-28T00:01:24.166Z,0
2023-01-28T00:02:24.533Z,0
2023-01-28T00:03:24.662Z,0
2023-01-28T00:04:24.404Z,0
2023-01-28T00:05:24.441Z,0
2023-01-28T00:06:24.284Z,0
2023-01-28T00:07:23.990Z,0
2023-01-28T00:08:24.213Z,0
2023-01-28T00:09:23.947Z,0
2023-01-28T00:10:23.941Z,0
2023-01-28T00:11:23.910Z,0
2023-01-28T00:12:24.131Z,0
2023-01-28T00:13:23.859Z,0
2023-01-28T00:14:23.658Z,0
2023-01-28T00:15:23.564Z,0
2023-01-28T00:16:23.968Z,0
2023-01-28T00:17:23.811Z,0
2023-01-28T00:18:24.016Z,0
2023-01-28T00:19:23.996Z,0
2023-01-28T00:20:23.775Z,0
2023-01-28T00:21:24.001Z,0
2023-01-28T00:22:23.417Z,0
2023-01-28T00:23:23.646Z,0
2023-01-28T00:24:24.106Z,0
2023-01-28T00:25:24.065Z,0
2023-01-28T00:26:23.847Z,0
2023-01-28T00:27:23.818Z,0
2023-01-28T00:28:23.543Z,0
2023-01-28T00:29:23.531Z,0
2023-01-28T00:30:23.525Z,0
2023-01-28T00:31:23.539Z,0
2023-01-28T00:32:23.471Z,0
2023-01-28T00:33:23.736Z,0
2023-01-28T00:34:23.466Z,0
2023-01-28T00:35:23.704Z,0
2023-01-28T00:36:23.720Z,0
2023-01-28T00:37:23.829Z,0
2023-01-28T00:38:23.594Z,0
2023-01-28T00:39:23.326Z,0
2023-01-28T00:40:23.544Z,0
2023-01-28T00:41:23.322Z,0
2023-01-28T00:42:23.268Z,0
2023-01-28T00:43:23.264Z,0
2023-01-28T00:44:23.224Z,0
2023-01-28T00:45:24.129Z,0
2023-01-28T00:46:23.141Z,0
2023-01-28T00:47:23.153Z,0
2023-01-28T00:48:22.919Z,0
2023-01-28T00:49:23.397Z,0
2023-01-28T00:50:22.854Z,0
2023-01-28T00:51:23.101Z,0
2023-01-28T00:52:23.354Z,0
2023-01-28T00:53:23.349Z,0
2023-01-28T00:54:23.289Z,0
2023-01-28T00:55:23.524Z,0
2023-01-28T00:56:22.972Z,0
2023-01-28T00:57:22.948Z,0
2023-01-28T00:58:22.678Z,0
2023-01-28T00:59:22.905Z,0
2023-01-28T01:00:22.894Z,0
2023-01-28T01:01:23.174Z,0
2023-01-28T01:02:22.846Z,0
2023-01-28T01:03:23.099Z,0
2023-01-28T01:04:22.808Z,0
2023-01-28T01:05:23.650Z,0
2023-01-28T01:06:22.542Z,0
2023-01-28T01:07:22.487Z,0
2023-01-28T01:08:23.192Z,0
2023-01-28T01:09:22.739Z,0
2023-01-28T01:10:22.461Z,0
2023-01-28T01:11:22.430Z,0
2023-01-28T01:12:22.899Z,0
2023-01-28T01:13:22.881Z,0
2023-01-28T01:14:22.861Z,0
2023-01-28T01:15:23.341Z,0
2023-01-28T01:16:22.389Z,0
2023-01-28T01:17:22.533Z,0
2023-01-28T01:18:22.768Z,0
2023-01-28T01:19:22.485Z,0
2023-01-28T01:20:22.726Z,0
2023-01-28T01:21:22.272Z,0
2023-01-28T01:22:22.683Z,0
2023-01-28T01:23:22.668Z,0
2023-01-28T01:24:23.014Z,0
2023-01-28T01:25:22.936Z,0
2023-01-28T01:26:22.108Z,0
2023-01-28T01:27:22.346Z,0
2023-01-28T01:28:22.059Z,0
2023-01-28T01:29:22.543Z,0
2023-01-28T01:30:22.528Z,0
2023-01-28T01:31:22.781Z,0
2023-01-28T01:32:22.481Z,0
2023-01-28T01:33:22.467Z,0
2023-01-28T01:34:54.001Z,0
2023-01-28T01:35:23.121Z,0
2023-01-28T01:36:22.442Z,0
2023-01-28T01:37:22.411Z,0
2023-01-28T01:38:23.007Z,0
2023-01-28T01:39:22.097Z,0
2023-01-28T01:40:22.410Z,0
2023-01-28T01:41:22.317Z,0
2023-01-28T01:42:21.779Z,0
2023-01-28T01:43:22.025Z,0
2023-01-28T01:44:22.217Z,0
2023-01-28T01:45:22.863Z,0
2023-01-28T01:46:22.370Z,0
2023-01-28T01:47:21.910Z,0
2023-01-28T01:48:21.887Z,0
2023-01-28T01:49:21.924Z,0
2023-01-28T01:50:21.861Z,0
2023-01-28T01:51:21.851Z,0
2023-01-28T01:52:21.551Z,0
2023-01-28T01:53:21.846Z,0
2023-01-28T01:54:21.828Z,0
2023-01-28T01:55:22.479Z,0
2023-01-28T01:56:22.022Z,0
2023-01-28T01:57:21.731Z,0
2023-01-28T01:58:21.695Z,0
2023-01-28T01:59:21.666Z,0
2023-01-28T02:00:21.880Z,0
2023-01-28T02:01:21.366Z,0
2023-01-28T02:02:22.176Z,0
2023-01-28T02:03:21.727Z,0
2023-01-28T02:04:21.575Z,0
2023-01-28T02:05:22.637Z,0
2023-01-28T02:06:21.551Z,0
2023-01-28T02:07:22.048Z,0
2023-01-28T02:08:21.763Z,0
2023-01-28T02:09:21.734Z,0
2023-01-28T02:10:21.621Z,0
2023-01-28T02:11:21.434Z,0
2023-01-28T02:12:21.690Z,0
2023-01-28T02:13:21.383Z,0
2023-01-28T02:14:36.411Z,0
2023-01-28T02:15:22.438Z,0
2023-01-28T02:16:21.823Z,0
2023-01-28T02:17:21.552Z,0
2023-01-28T02:18:21.000Z,0
2023-01-28T02:19:21.279Z,0
2023-01-28T02:20:21.222Z,0
2023-01-28T02:21:21.481Z,0
2023-01-28T02:22:20.937Z,0
2023-01-28T02:23:21.151Z,0
2023-01-28T02:24:21.125Z,0
2023-01-28T02:25:22.174Z,0
2023-01-28T02:26:20.851Z,0
2023-01-28T02:27:21.364Z,0
2023-01-28T02:28:21.148Z,0
2023-01-28T02:29:21.056Z,0
2023-01-28T02:30:20.765Z,0
2023-01-28T02:31:21.512Z,0
2023-01-28T02:32:20.959Z,0
2023-01-28T02:33:20.956Z,0
2023-01-28T02:34:21.189Z,0
2023-01-28T02:35:21.881Z,0
2023-01-28T02:36:20.923Z,0
2023-01-28T02:37:21.126Z,0
2023-01-28T02:38:20.843Z,0
2023-01-28T02:39:20.841Z,0
2023-01-28T02:40:20.812Z,0
2023-01-28T02:41:20.829Z,0
2023-01-28T02:42:21.016Z,0
2023-01-28T02:43:21.001Z,0
2023-01-28T02:44:20.771Z,0
2023-01-28T02:45:21.492Z,0
2023-01-28T02:46:20.864Z,0
2023-01-28T02:47:20.157Z,0
2023-01-28T02:48:20.419Z,0
2023-01-28T02:49:20.618Z,0
2023-01-28T02:50:20.855Z,0
2023-01-28T02:51:20.317Z,0
2023-01-28T02:52:20.832Z,0
2023-01-28T02:53:20.794Z,0
2023-01-28T02:54:20.502Z,0
2023-01-28T02:55:21.486Z,0
2023-01-28T02:56:20.764Z,0
2023-01-28T02:57:20.727Z,0
2023-01-28T02:58:20.421Z,0
2023-01-28T02:59:20.398Z,0
2023-01-28T03:00:20.701Z,0
2023-01-28T03:01:20.770Z,0
2023-01-28T03:02:20.655Z,0
2023-01-28T03:03:20.369Z,0
2023-01-28T03:04:20.595Z,0
2023-01-28T03:05:21.511Z,0
2023-01-28T03:06:20.268Z,0
2023-01-28T03:07:19.981Z,0
2023-01-28T03:08:20.226Z,0
2023-01-28T03:09:20.232Z,0
2023-01-28T03:10:22.594Z,0
2023-01-28T03:11:20.420Z,0
2023-01-28T03:12:20.145Z,0
2023-01-28T03:13:20.401Z,0
2023-01-28T03:14:20.098Z,0
2023-01-28T03:15:21.353Z,0
2023-01-28T03:16:20.222Z,0
2023-01-28T03:17:20.323Z,0
2023-01-28T03:18:19.514Z,0
2023-01-28T03:19:20.000Z,0
2023-01-28T03:20:20.358Z,0
2023-01-28T03:21:19.943Z,0
2023-01-28T03:22:20.939Z,0
2023-01-28T03:23:21.194Z,0
2023-01-28T03:24:21.144Z,0
2023-01-28T03:25:21.874Z,0
2023-01-28T03:26:20.861Z,0
2023-01-28T03:27:20.895Z,0
2023-01-28T03:28:20.819Z,0
2023-01-28T03:29:20.861Z,0
2023-01-28T03:30:21.043Z,0
2023-01-28T03:31:20.492Z,0
2023-01-28T03:32:21.320Z,0
2023-01-28T03:33:21.001Z,0
2023-01-28T03:50:12.961Z,0
2023-01-28T03:51:12.082Z,0
2023-01-28T03:52:12.554Z,0
2023-01-28T03:53:15.038Z,0
2023-01-28T03:54:12.244Z,0
2023-01-28T03:55:12.825Z,0
2023-01-28T03:56:12.722Z,0
2023-01-28T03:57:12.199Z,0
2023-01-28T03:58:12.151Z,0
2023-01-28T03:59:12.644Z,0
2023-01-28T04:00:12.662Z,0
2023-01-28T04:01:12.607Z,0
2023-01-28T04:02:12.599Z,0
2023-01-28T04:03:12.844Z,0
2023-01-28T04:04:12.317Z,0
2023-01-28T04:05:12.649Z,0
2023-01-28T04:06:12.643Z,0
2023-01-28T04:07:12.471Z,0
2023-01-28T04:08:11.942Z,0
2023-01-28T04:09:11.921Z,0
2023-01-28T04:10:12.036Z,0
2023-01-28T04:11:12.138Z,0
2023-01-28T04:12:12.436Z,0
2023-01-28T04:13:14.813Z,0
2023-01-28T04:14:12.092Z,0
2023-01-28T04:15:12.710Z,0
2023-01-28T04:16:12.242Z,0
2023-01-28T04:17:12.164Z,0
2023-01-28T04:18:12.011Z,0
2023-01-28T04:19:12.027Z,0
2023-01-28T04:20:11.938Z,0
2023-01-28T04:21:11.920Z,0
2023-01-28T04:22:12.299Z,0
2023-01-28T04:23:11.624Z,0
2023-01-28T04:24:12.109Z,0
2023-01-28T04:25:11.589Z,0
2023-01-28T04:26:11.819Z,0
2023-01-28T04:27:12.077Z,0
2023-01-28T04:28:11.549Z,0
2023-01-28T04:29:12.010Z,0
2023-01-28T04:30:11.751Z,0
2023-01-28T04:31:11.992Z,0
2023-01-28T04:32:14.141Z,0
2023-01-28T04:33:11.918Z,0
2023-01-28T04:34:11.646Z,0
2023-01-28T04:35:11.624Z,0
2023-01-28T04:36:11.794Z,0
2023-01-28T04:37:11.585Z,0
2023-01-28T04:38:11.941Z,0
2023-01-28T04:39:11.043Z,0
2023-01-28T04:40:11.568Z,0
2023-01-28T04:41:11.512Z,0
2023-01-28T04:42:11.737Z,0
2023-01-28T04:43:11.233Z,0
2023-01-28T04:44:11.461Z,0
2023-01-28T04:45:11.436Z,0
2023-01-28T04:46:11.399Z,0
2023-01-28T04:47:11.402Z,0
2023-01-28T04:48:11.626Z,0
2023-01-28T04:49:11.107Z,0
2023-01-28T04:50:11.381Z,0
2023-01-28T04:51:11.043Z,0
2023-01-28T04:52:11.281Z,0
2023-01-28T04:53:11.265Z,0
2023-01-28T04:54:11.588Z,0
2023-01-28T04:55:11.222Z,0
2023-01-28T04:56:11.436Z,0
2023-01-28T04:57:11.196Z,0
2023-01-28T04:58:11.180Z,0
2023-01-28T04:59:10.880Z,0
2023-01-28T05:00:11.123Z,0
2023-01-28T05:01:11.377Z,0
2023-01-28T05:02:11.549Z,0
2023-01-28T05:03:11.310Z,0
2023-01-28T05:04:11.054Z,0
2023-01-28T05:05:11.051Z,0
2023-01-28T05:06:10.974Z,0
2023-01-28T05:07:11.204Z,0
2023-01-28T05:08:11.203Z,0
2023-01-28T05:09:10.936Z,0
2023-01-28T05:10:11.240Z,0
2023-01-28T05:11:11.136Z,0
2023-01-28T05:12:10.856Z,0
2023-01-28T05:13:10.840Z,0
2023-01-28T05:14:11.146Z,0
2023-01-28T05:15:11.042Z,0
2023-01-28T05:16:10.768Z,0
2023-01-28T05:17:10.708Z,0
2023-01-28T05:18:11.026Z,0
2023-01-28T05:19:10.453Z,0
2023-01-28T05:20:10.681Z,0
2023-01-28T05:21:10.678Z,0
2023-01-28T05:22:10.632Z,0
2023-01-28T05:23:10.881Z,0
2023-01-28T05:24:10.439Z,0
2023-01-28T05:25:10.619Z,0
2023-01-28T05:26:11.036Z,0
2023-01-28T05:27:10.556Z,0
2023-01-28T05:28:10.264Z,0
2023-01-28T05:29:10.866Z,0
2023-01-28T05:30:10.483Z,0
2023-01-28T05:31:10.676Z,0
2023-01-28T05:32:10.699Z,0
2023-01-28T05:33:10.466Z,0
2023-01-28T05:34:10.687Z,0
2023-01-28T05:35:10.631Z,0
2023-01-28T05:36:10.180Z,0
2023-01-28T05:37:10.349Z,0
2023-01-28T05:38:10.613Z,0
2023-01-28T05:39:10.532Z,0
2023-01-28T05:40:10.340Z,0
2023-01-28T05:41:10.529Z,0
2023-01-28T05:42:10.652Z,0
2023-01-28T05:43:09.969Z,0
2023-01-28T05:44:10.318Z,0
2023-01-28T05:45:10.460Z,0
2023-01-28T05:46:10.551Z,0
2023-01-28T05:47:10.197Z,0
2023-01-28T05:48:09.866Z,0
2023-01-28T05:49:09.811Z,0
2023-01-28T05:50:10.069Z,0
2023-01-28T05:51:10.308Z,0
2023-01-28T05:52:10.072Z,0
2023-01-28T05:53:10.305Z,0
2023-01-28T05:54:09.718Z,0
2023-01-28T05:55:10.316Z,0
2023-01-28T05:56:10.183Z,0
2023-01-28T05:57:10.209Z,0
2023-01-28T05:58:10.253Z,0
2023-01-28T05:59:10.151Z,0
2023-01-28T06:00:09.648Z,0
2023-01-28T06:01:10.077Z,0
2023-01-28T06:02:10.015Z,0
2023-01-28T06:03:09.762Z,0
2023-01-28T06:04:09.752Z,0
2023-01-28T06:05:09.852Z,0
2023-01-28T06:06:09.983Z,0
2023-01-28T06:07:09.694Z,0
2023-01-28T06:08:09.661Z,0
2023-01-28T06:09:09.909Z,0
2023-01-28T06:10:09.628Z,0
2023-01-28T06:11:09.350Z,0
2023-01-28T06:12:09.848Z,0
2023-01-28T06:13:09.806Z,0
2023-01-28T06:14:09.900Z,0
2023-01-28T06:15:09.787Z,0
2023-01-28T06:16:09.594Z,0
2023-01-28T06:17:09.748Z,0
2023-01-28T06:18:09.498Z,0
2023-01-28T06:19:09.441Z,0
2023-01-28T06:20:09.215Z,0
2023-01-28T06:21:09.403Z,0
2023-01-28T06:22:10.234Z,0
2023-01-28T06:23:10.210Z,0
2023-01-28T06:24:10.235Z,4
2023-01-28T06:25:09.932Z,0
2023-01-28T06:26:10.154Z,4
2023-01-28T06:27:09.870Z,4
2023-01-28T06:28:10.103Z,4
2023-01-28T06:29:09.584Z,4
2023-01-28T06:30:10.278Z,8
2023-01-28T06:31:09.868Z,8
2023-01-28T06:32:09.956Z,8
2023-01-28T06:33:09.774Z,8
2023-01-28T06:34:09.726Z,8
2023-01-28T06:35:09.679Z,12
2023-01-28T06:36:09.673Z,16
2023-01-28T06:37:09.938Z,16
2023-01-28T06:38:09.610Z,16
2023-01-28T06:39:09.167Z,20
2023-01-28T06:40:09.637Z,24
2023-01-28T06:41:09.827Z,28
2023-01-28T06:42:09.565Z,32
2023-01-28T06:43:09.292Z,40
2023-01-28T06:44:09.766Z,44
2023-01-28T06:45:09.496Z,48
2023-01-28T06:46:10.184Z,56
2023-01-28T06:47:09.176Z,64
2023-01-28T06:48:13.617Z,64
2023-01-28T06:49:09.654Z,72
2023-01-28T06:50:09.400Z,80
2023-01-28T06:51:09.358Z,92
2023-01-28T06:52:09.325Z,100
2023-01-28T06:53:09.300Z,100
2023-01-28T06:54:09.284Z,104
2023-01-28T06:55:09.542Z,112
2023-01-28T06:56:09.536Z,124
2023-01-28T06:57:09.223Z,132
2023-01-28T06:58:08.953Z,144
2023-01-28T06:59:09.434Z,160
2023-01-28T07:00:08.933Z,176
2023-01-28T07:01:09.378Z,196
2023-01-28T07:02:09.649Z,196
2023-01-28T07:03:09.675Z,208
2023-01-28T07:04:08.846Z,204
2023-01-28T07:05:09.305Z,236
2023-01-28T07:06:09.276Z,232
2023-01-28T07:07:09.032Z,240
2023-01-28T07:08:09.286Z,240
2023-01-28T07:09:09.212Z,236
2023-01-28T07:10:09.297Z,248
2023-01-28T07:11:09.183Z,248
2023-01-28T07:12:08.943Z,244
2023-01-28T07:13:09.180Z,252
2023-01-28T07:14:08.868Z,276
2023-01-28T07:15:08.825Z,300
2023-01-28T07:16:08.828Z,300
2023-01-28T07:17:09.223Z,316
2023-01-28T07:18:09.517Z,328
2023-01-28T07:19:08.483Z,340
2023-01-28T07:20:08.722Z,376
2023-01-28T07:21:08.950Z,384
2023-01-28T07:22:08.429Z,400
2023-01-28T07:23:08.932Z,392
2023-01-28T07:24:09.141Z,392
2023-01-28T07:25:08.871Z,420
2023-01-28T07:26:08.874Z,460
2023-01-28T07:27:08.599Z,480
2023-01-28T07:28:08.559Z,508
2023-01-28T07:29:08.522Z,496
2023-01-28T07:30:08.792Z,520
2023-01-28T07:31:09.133Z,516
2023-01-28T07:32:09.383Z,488
2023-01-28T07:33:08.753Z,496
2023-01-28T07:34:09.083Z,512
2023-01-28T07:35:08.724Z,564
2023-01-28T07:36:08.931Z,564
2023-01-28T07:37:08.411Z,620
2023-01-28T07:38:08.893Z,604
2023-01-28T07:39:08.917Z,612
2023-01-28T07:40:08.633Z,632
2023-01-28T07:41:08.558Z,664
2023-01-28T07:42:08.793Z,684
2023-01-28T07:43:08.546Z,660
2023-01-28T07:44:08.238Z,688
2023-01-28T07:45:08.752Z,660
2023-01-28T07:46:08.963Z,648
2023-01-28T07:47:09.113Z,628
2023-01-28T07:48:08.612Z,712
2023-01-28T07:49:08.856Z,828
2023-01-28T07:50:09.218Z,844
2023-01-28T07:51:08.380Z,824
2023-01-28T07:52:08.581Z,776
2023-01-28T07:53:08.792Z,752
2023-01-28T07:54:08.773Z,744
2023-01-28T07:55:09.045Z,788
2023-01-28T07:56:08.785Z,760
2023-01-28T07:57:08.450Z,724
2023-01-28T07:58:08.714Z,724
2023-01-28T07:59:08.420Z,820
2023-01-28T08:00:08.429Z,828
2023-01-28T08:01:08.634Z,824
2023-01-28T08:02:09.016Z,832
2023-01-28T08:03:08.605Z,844
2023-01-28T08:04:09.116Z,920
2023-01-28T08:05:09.222Z,884
2023-01-28T08:06:08.891Z,828
2023-01-28T08:07:10.587Z,832
2023-01-28T08:08:08.510Z,848
2023-01-28T08:09:08.481Z,876
2023-01-28T08:10:08.466Z,936
2023-01-28T08:11:08.161Z,924
2023-01-28T08:12:08.132Z,964
2023-01-28T08:13:08.615Z,928
2023-01-28T08:14:08.614Z,944
2023-01-28T08:15:08.582Z,996
2023-01-28T08:16:08.761Z,1092
2023-01-28T08:17:08.021Z,1144
2023-01-28T08:18:08.240Z,1148
2023-01-28T08:19:08.505Z,1136
2023-01-28T08:20:08.487Z,1172
2023-01-28T08:21:08.464Z,1252
2023-01-28T08:22:08.547Z,1312
2023-01-28T08:23:07.882Z,1304
2023-01-28T08:24:08.352Z,1324
2023-01-28T08:25:08.172Z,1392
2023-01-28T08:26:08.115Z,1468
2023-01-28T08:27:08.304Z,1548
2023-01-28T08:28:08.356Z,1692
2023-01-28T08:29:07.775Z,1876
2023-01-28T08:30:08.023Z,2000
2023-01-28T08:31:08.978Z,2244
2023-01-28T08:32:07.980Z,2276
2023-01-28T08:33:07.932Z,2324
2023-01-28T08:34:09.576Z,2380
2023-01-28T08:35:07.929Z,2320
2023-01-28T08:36:07.867Z,2296
2023-01-28T08:37:07.839Z,2376
2023-01-28T08:38:08.166Z,2364
2023-01-28T08:39:08.053Z,2400
2023-01-28T08:40:07.525Z,2476
2023-01-28T08:41:07.771Z,2516
2023-01-28T08:42:08.026Z,2648
2023-01-28T08:43:08.004Z,2908
2023-01-28T08:44:07.463Z,3008
2023-01-28T08:45:07.974Z,2968
2023-01-28T08:46:07.522Z,3008
2023-01-28T08:47:07.169Z,2880
2023-01-28T08:48:07.364Z,2848
2023-01-28T08:49:07.573Z,2912
2023-01-28T08:50:07.803Z,3112
2023-01-28T08:51:07.785Z,3224
2023-01-28T08:52:07.780Z,3240
2023-01-28T08:53:07.767Z,3364
2023-01-28T08:54:07.820Z,3268
2023-01-28T08:55:07.741Z,3400
2023-01-28T08:56:07.491Z,3268
2023-01-28T08:57:07.431Z,3164
2023-01-28T08:58:07.434Z,3064
2023-01-28T08:59:06.843Z,3104
2023-01-28T09:00:07.094Z,3208
2023-01-28T09:01:07.593Z,3416
2023-01-28T09:02:07.066Z,3556
2023-01-28T09:03:10.441Z,3556
2023-01-28T09:04:07.619Z,3832
2023-01-28T09:05:07.260Z,3732
2023-01-28T09:06:07.488Z,3408
2023-01-28T09:07:07.176Z,3248
2023-01-28T09:08:07.441Z,3624
2023-01-28T09:09:07.193Z,3496
2023-01-28T09:10:07.579Z,3256
2023-01-28T09:11:07.373Z,3404
2023-01-28T09:12:07.085Z,3340
2023-01-28T09:13:07.325Z,3388
2023-01-28T09:14:06.803Z,3344
2023-01-28T09:15:07.012Z,3396
2023-01-28T09:16:07.264Z,3368
2023-01-28T09:17:07.223Z,3376
2023-01-28T09:18:07.255Z,3308
2023-01-28T09:19:06.698Z,3328
2023-01-28T09:20:06.916Z,3388
2023-01-28T09:21:06.886Z,3464
2023-01-28T09:22:07.132Z,3360
2023-01-28T09:23:06.862Z,3384
2023-01-28T09:24:06.803Z,3608
2023-01-28T09:25:07.084Z,3472
2023-01-28T09:26:07.169Z,3392
2023-01-28T09:27:07.026Z,3364
2023-01-28T09:28:06.798Z,3440
2023-01-28T09:29:06.975Z,3380
2023-01-28T09:30:06.714Z,3332
2023-01-28T09:31:07.308Z,3392
2023-01-28T09:32:06.755Z,3500
2023-01-28T09:33:06.882Z,3536
2023-01-28T09:34:06.113Z,3596
2023-01-28T09:35:06.586Z,3580
2023-01-28T09:36:06.858Z,3640
2023-01-28T09:37:06.837Z,3684
2023-01-28T09:38:06.608Z,3636
2023-01-28T09:39:06.438Z,3564
2023-01-28T09:40:06.785Z,3564
2023-01-28T09:41:06.470Z,3560
2023-01-28T09:42:06.788Z,3584
2023-01-28T09:43:06.707Z,3652
2023-01-28T09:44:07.039Z,3864
2023-01-28T09:45:07.041Z,4108
2023-01-28T09:46:07.271Z,3976
2023-01-28T09:47:07.144Z,3880
2023-01-28T09:48:07.263Z,3940
2023-01-28T09:49:06.679Z,3972
2023-01-28T09:50:06.888Z,3924
2023-01-28T09:51:06.864Z,3832
2023-01-28T09:52:07.149Z,4036
2023-01-28T09:53:06.847Z,4404
2023-01-28T09:54:07.076Z,4496
2023-01-28T09:55:06.823Z,4412
2023-01-28T09:56:07.038Z,4268
2023-01-28T09:57:06.491Z,4472
2023-01-28T09:58:07.073Z,4576
2023-01-28T09:59:06.951Z,4080
2023-01-28T10:00:06.686Z,4244
2023-01-28T10:01:07.227Z,4396
2023-01-28T10:02:06.908Z,4292
2023-01-28T10:03:06.897Z,4464
2023-01-28T10:04:07.216Z,4772
2023-01-28T10:05:06.852Z,4540
2023-01-28T10:06:06.561Z,4732
2023-01-28T10:07:06.817Z,4788
2023-01-28T10:08:06.254Z,5128
2023-01-28T10:09:06.764Z,5136
2023-01-28T10:10:06.728Z,5080
2023-01-28T10:11:06.196Z,5520
2023-01-28T10:12:06.696Z,5684
2023-01-28T10:13:06.659Z,5880
2023-01-28T10:14:06.736Z,6480
2023-01-28T10:15:06.382Z,6748
2023-01-28T10:16:06.376Z,6816
2023-01-28T10:17:06.366Z,6736
2023-01-28T10:18:23.482Z,6188
2023-01-28T10:19:06.318Z,6136
2023-01-28T10:20:06.244Z,6152
2023-01-28T10:21:06.236Z,6084
2023-01-28T10:22:06.488Z,6348
2023-01-28T10:23:06.199Z,6872
2023-01-28T10:24:06.192Z,6700
2023-01-28T10:25:06.172Z,6796
2023-01-28T10:26:06.133Z,6688
2023-01-28T10:27:06.124Z,7024
2023-01-28T10:28:06.113Z,6920
2023-01-28T10:29:05.814Z,7172
2023-01-28T10:30:06.385Z,6904
2023-01-28T10:31:05.953Z,7196
2023-01-28T10:32:06.364Z,6412
2023-01-28T10:33:05.981Z,6284
2023-01-28T10:34:06.048Z,6992
2023-01-28T10:35:05.958Z,6956
2023-01-28T10:36:05.659Z,6240
2023-01-28T10:37:05.881Z,6416
2023-01-28T10:38:05.892Z,6568
2023-01-28T10:39:05.601Z,6908
2023-01-28T10:40:05.602Z,7408
2023-01-28T10:41:07.322Z,7256
2023-01-28T10:42:05.636Z,7196
2023-01-28T10:43:05.761Z,7152
2023-01-28T10:44:05.486Z,6740
2023-01-28T10:45:05.989Z,6516
2023-01-28T10:46:06.352Z,6264
2023-01-28T10:47:06.131Z,5952
2023-01-28T10:48:05.859Z,5664
2023-01-28T10:49:05.800Z,6156
2023-01-28T10:50:06.069Z,6016
2023-01-28T10:51:06.307Z,6188
2023-01-28T10:52:06.248Z,6164
2023-01-28T10:53:06.254Z,6076
2023-01-28T10:54:05.718Z,5984
2023-01-28T10:55:05.932Z,5976
2023-01-28T10:56:05.916Z,6144
2023-01-28T10:57:06.169Z,6292
2023-01-28T10:58:05.623Z,6552
2023-01-28T10:59:05.910Z,6768
2023-01-28T11:00:05.587Z,6676
2023-01-28T11:01:06.012Z,6572
2023-01-28T11:02:06.408Z,6908
2023-01-28T11:03:06.058Z,6928
2023-01-28T11:04:06.024Z,6904
2023-01-28T11:05:05.747Z,6584
2023-01-28T11:06:05.454Z,6680
2023-01-28T11:07:05.709Z,6728
2023-01-28T11:08:05.708Z,6572
2023-01-28T11:09:08.614Z,6476
2023-01-28T11:10:05.644Z,6456
2023-01-28T11:11:05.597Z,6660
2023-01-28T11:12:05.823Z,6720
2023-01-28T11:13:05.565Z,6896
2023-01-28T11:14:05.349Z,7048
2023-01-28T11:15:05.808Z,7040
2023-01-28T11:16:05.255Z,6948
2023-01-28T11:17:05.727Z,6776
2023-01-28T11:18:05.966Z,6920
2023-01-28T11:19:04.921Z,6856
2023-01-28T11:20:05.729Z,6968
2023-01-28T11:21:05.400Z,6932
2023-01-28T11:22:05.677Z,6740
2023-01-28T11:23:05.357Z,6752
2023-01-28T11:24:06.513Z,6632
2023-01-28T11:25:05.313Z,6592
2023-01-28T11:26:05.333Z,6368
2023-01-28T11:27:07.235Z,6060
2023-01-28T11:28:05.585Z,5916
2023-01-28T11:29:05.006Z,5828
2023-01-28T11:30:05.360Z,5780
2023-01-28T11:31:05.513Z,5500
2023-01-28T11:32:05.354Z,5340
2023-01-28T11:33:05.530Z,5264
2023-01-28T11:34:05.514Z,5168
2023-01-28T11:35:05.147Z,5136
2023-01-28T11:36:05.145Z,4964
2023-01-28T11:37:05.061Z,4864
2023-01-28T11:38:04.971Z,4896
2023-01-28T11:39:05.051Z,4944
2023-01-28T11:40:05.000Z,5080
2023-01-28T11:41:05.152Z,4976
2023-01-28T11:42:04.945Z,5076
2023-01-28T11:43:04.964Z,5132
2023-01-28T11:44:05.438Z,5112
2023-01-28T11:45:05.778Z,4976
2023-01-28T11:46:07.920Z,4840
2023-01-28T11:47:05.124Z,4664
2023-01-28T11:48:05.419Z,4560
2023-01-28T11:49:04.841Z,4628
2023-01-28T11:50:05.179Z,4636
2023-01-28T11:51:04.899Z,4644
2023-01-28T11:52:04.788Z,4644
2023-01-28T11:53:15.548Z,4556
2023-01-28T11:54:05.463Z,4616
2023-01-28T11:55:04.954Z,4692
2023-01-28T11:56:04.663Z,4780
2023-01-28T11:57:04.630Z,4760
2023-01-28T11:58:04.363Z,4956
2023-01-28T11:59:04.646Z,4976
2023-01-28T12:00:04.628Z,5012
2023-01-28T12:01:04.871Z,5024
2023-01-28T12:02:04.535Z,4976
2023-01-28T12:03:04.683Z,5032
2023-01-28T12:04:04.845Z,5124
2023-01-28T12:05:04.851Z,5304
2023-01-28T12:06:04.831Z,5344
2023-01-28T12:07:04.427Z,5244
2023-01-28T12:08:04.413Z,5272
2023-01-28T12:09:04.636Z,5340
2023-01-28T12:10:04.648Z,5364
2023-01-28T12:11:04.103Z,5388
2023-01-28T12:12:06.514Z,5412
2023-01-28T12:13:04.054Z,5332
2023-01-28T12:14:04.537Z,5240
2023-01-28T12:15:04.265Z,5152
2023-01-28T12:16:04.861Z,5152
2023-01-28T12:17:04.214Z,5108
2023-01-28T12:18:03.941Z,5040
2023-01-28T12:19:03.923Z,5088
2023-01-28T12:20:04.465Z,5096
2023-01-28T12:21:03.876Z,5048
2023-01-28T12:22:04.455Z,4996
2023-01-28T12:23:05.346Z,5076
2023-01-28T12:24:04.545Z,5052
2023-01-28T12:25:03.954Z,5056
2023-01-28T12:26:04.009Z,4944
2023-01-28T12:27:04.257Z,4852
2023-01-28T12:28:04.248Z,4884
2023-01-28T12:29:03.958Z,4756
2023-01-28T12:30:04.391Z,4672
2023-01-28T12:31:04.252Z,4676
2023-01-28T12:32:03.963Z,4848
2023-01-28T12:33:04.129Z,4948
2023-01-28T12:34:04.097Z,4980
2023-01-28T12:35:03.847Z,5024
2023-01-28T12:36:03.817Z,4980
2023-01-28T12:37:04.043Z,4796
2023-01-28T12:38:04.370Z,4692
2023-01-28T12:39:04.020Z,4728
2023-01-28T12:40:03.766Z,4740
2023-01-28T12:41:03.982Z,4904
2023-01-28T12:42:03.940Z,5016
2023-01-28T12:43:03.919Z,4892
2023-01-28T12:44:03.942Z,4892
2023-01-28T12:45:03.924Z,4876
2023-01-28T12:46:03.621Z,4676
2023-01-28T12:47:06.637Z,4628
2023-01-28T12:48:03.814Z,4488
2023-01-28T12:49:03.536Z,4388
2023-01-28T12:50:03.541Z,4344
2023-01-28T12:51:03.783Z,4392
2023-01-28T12:52:03.485Z,4452
2023-01-28T12:53:03.236Z,4356
2023-01-28T12:54:03.771Z,4216
2023-01-28T12:55:03.678Z,4184
2023-01-28T12:56:03.150Z,4096
2023-01-28T12:57:03.157Z,4072
2023-01-28T12:58:03.605Z,4120
2023-01-28T12:59:03.079Z,4052
2023-01-28T13:00:03.620Z,3992
2023-01-28T13:01:03.595Z,3888
2023-01-28T13:02:03.712Z,3928
2023-01-28T13:03:03.164Z,3956
2023-01-28T13:04:03.513Z,3960
2023-01-28T13:05:03.487Z,3920
2023-01-28T13:06:03.189Z,3944
2023-01-28T13:07:03.395Z,3968
2023-01-28T13:08:03.148Z,3908
2023-01-28T13:09:03.113Z,3804
2023-01-28T13:10:03.425Z,3784
2023-01-28T13:11:03.334Z,3732
2023-01-28T13:12:03.049Z,3692
2023-01-28T13:13:03.034Z,3700
2023-01-28T13:14:03.251Z,3784
2023-01-28T13:15:03.248Z,3876
2023-01-28T13:16:02.833Z,4048
2023-01-28T13:17:02.943Z,4192
2023-01-28T13:18:03.222Z,4304
2023-01-28T13:19:02.923Z,4304
2023-01-28T13:20:03.143Z,4428
2023-01-28T13:21:03.151Z,4512
2023-01-28T13:22:02.845Z,4516
2023-01-28T13:23:03.066Z,4388
2023-01-28T13:24:03.224Z,4336
2023-01-28T13:25:03.353Z,4276
2023-01-28T13:26:03.105Z,4228
2023-01-28T13:27:02.789Z,4292
2023-01-28T13:28:02.506Z,4356
2023-01-28T13:29:02.692Z,4308
2023-01-28T13:30:02.656Z,4288
2023-01-28T13:31:03.136Z,4252
2023-01-28T13:32:02.607Z,4152
2023-01-28T13:33:02.412Z,4072
2023-01-28T13:34:02.579Z,3948
2023-01-28T13:35:02.555Z,3884
2023-01-28T13:36:02.281Z,3868
2023-01-28T13:37:04.443Z,3808
2023-01-28T13:38:02.774Z,3820
2023-01-28T13:39:02.495Z,3780
2023-01-28T13:40:02.494Z,3652
2023-01-28T13:41:02.177Z,3528
2023-01-28T13:42:02.747Z,3516
2023-01-28T13:43:04.454Z,3452
2023-01-28T13:44:02.356Z,3360
2023-01-28T13:45:02.377Z,3316
2023-01-28T13:46:02.813Z,3260
2023-01-28T13:47:02.546Z,3212
2023-01-28T13:48:02.285Z,3184
2023-01-28T13:49:02.023Z,3112
2023-01-28T13:50:02.593Z,3072
2023-01-28T13:51:02.491Z,3048
2023-01-28T13:52:02.249Z,2996
2023-01-28T13:53:01.908Z,2896
2023-01-28T13:54:02.458Z,2816
2023-01-28T13:55:01.859Z,2804
2023-01-28T13:56:02.391Z,2824
2023-01-28T13:57:02.338Z,2836
2023-01-28T13:58:02.407Z,2852
2023-01-28T13:59:01.786Z,2860
2023-01-28T14:00:02.027Z,2836
2023-01-28T14:01:01.778Z,2808
2023-01-28T14:02:02.262Z,2768
2023-01-28T14:03:01.567Z,2720
2023-01-28T14:04:01.939Z,2740
2023-01-28T14:05:01.988Z,2792
2023-01-28T14:06:02.174Z,2840
2023-01-28T14:07:01.894Z,2764
2023-01-28T14:08:02.104Z,2692
2023-01-28T14:09:01.817Z,2588
2023-01-28T14:10:02.458Z,2528
2023-01-28T14:11:01.785Z,2500
2023-01-28T14:12:02.033Z,2492
2023-01-28T14:13:01.751Z,2496
2023-01-28T14:14:02.103Z,2468
2023-01-28T14:15:01.690Z,2428
2023-01-28T14:16:03.134Z,2400